This is the latest recevied weather packets stored in our database for station/object KB2AHZ. If no packets are shown the sender has not sent any weather packets the latest 1 day(s).
| Time | Temp. | Humidity | Pressure | Rain* | Wind** | Luminosity | Snow |
|---|---|---|---|---|---|---|---|
| 1778100147 | 21.67° C | 83% | 1011.2 hPa | 0 mm | - | 206 W/m² | - |
| 1778098020 | 21.11° C | 86% | 1010.8 hPa | 0 mm | - | 245 W/m² | - |
| 1778097717 | 20.56° C | 87% | 1011.1 hPa | 0 mm | - | 246 W/m² | - |
| 1778097110 | 20.56° C | 86% | 1011 hPa | 0 mm | - | 199 W/m² | - |
| 1778095595 | 20.56° C | 85% | 1011.5 hPa | 0 mm | - | 159 W/m² | - |
| 1778095291 | 20.56° C | 85% | 1011.6 hPa | 0 mm | - | 166 W/m² | - |
| 1778094684 | 20.56° C | 84% | 1012.2 hPa | 0 mm | - | 225 W/m² | - |
| 1778092866 | 20.56° C | 86% | 1013 hPa | 0 mm | - | 295 W/m² | - |
| 1778092563 | 20.56° C | 87% | 1013.2 hPa | 0 mm | - | 301 W/m² | - |
| 1778088623 | 20° C | 88% | 1013.6 hPa | 0 mm | - | 430 W/m² | - |
| 1778087108 | 19.44° C | 89% | 1013.6 hPa | 0 mm | - | 324 W/m² | - |
| 1778086499 | 19.44° C | 93% | 1013.6 hPa | 0 mm | - | 474 W/m² | - |
| 1778085891 | 18.33° C | 94% | 1013.8 hPa | 0 mm | - | 350 W/m² | - |
| 1778085284 | 17.78° C | 95% | 1013.8 hPa | 0 mm | - | 251 W/m² | - |
| 1778084374 | 17.78° C | 97% | 1013.9 hPa | 1.78 mm | - | 204 W/m² | - |
| 1778083158 | 17.78° C | 94% | 1014.3 hPa | 2.29 mm | - | 153 W/m² | - |
| 1778081737 | 18.33° C | 89% | 1014.7 hPa | 1.27 mm | - | 87 W/m² | - |
| 1778080224 | 18.89° C | 80% | 1014.6 hPa | 0 mm | - | 149 W/m² | - |
| 1778079314 | 18.89° C | 79% | 1014.5 hPa | 0 mm | - | 129 W/m² | - |
| 1778075986 | 19.44° C | 73% | 1013.8 hPa | 0 mm | - | 260 W/m² | - |
| 1778075379 | 19.44° C | 74% | 1013.9 hPa | 0 mm | - | 159 W/m² | - |
| 1778073863 | 18.89° C | 77% | 1014 hPa | 0 mm | - | 179 W/m² | - |
| 1778073561 | 18.33° C | 78% | 1014 hPa | 0 mm | - | 160 W/m² | - |
| 1778072047 | 18.89° C | 76% | 1013.9 hPa | 0 mm | - | 146 W/m² | - |
| 1778071745 | 18.33° C | 76% | 1013.5 hPa | 0 mm | - | 128 W/m² | - |
* Rain latest hour (hover to see other rain measurements)
** Current wind speed in m/s (hover to see current wind gust speed)